Time;durP1;ratioP1;P1;durP2;ratioP2;P2;SDS_P1;SDS_P2;PMS_P1;PMS_P2;Temp;Humidity;BMP_temperature;BMP_pressure;BME280_temperature;BME280_humidity;BME280_pressure;Samples;Min_cycle;Max_cycle;Signal;HPM_P1;HPM_P2
2022/07/04 00:01:34;;;;;;;5.20;2.70;;;;;;;17.99;81.88;100701.03;84831;1324;23809;-71
2022/07/04 00:03:42;;;;;;;3.90;3.40;;;;;;;17.97;81.73;100700.11;84874;1320;22725;-71
2022/07/04 00:05:49;;;;;;;4.20;3.30;;;;;;;17.96;81.78;100700.74;84868;1323;24249;-71
2022/07/04 00:07:57;;;;;;;7.90;3.10;;;;;;;17.94;81.74;100699.45;84899;1327;22610;-72
2022/07/04 00:10:05;;;;;;;4.70;2.90;;;;;;;17.92;81.90;100698.13;84806;1326;22593;-72
2022/07/04 00:12:12;;;;;;;3.50;3.20;;;;;;;17.90;81.92;100697.40;84881;1318;22597;-72
2022/07/04 00:14:20;;;;;;;4.20;3.30;;;;;;;17.87;81.98;100694.60;84874;1326;22628;-71
2022/07/04 00:16:28;;;;;;;6.10;3.40;;;;;;;17.83;82.03;100695.20;84875;1324;22809;-71
2022/07/04 00:18:35;;;;;;;3.50;3.20;;;;;;;17.80;82.15;100696.25;84871;1323;22591;-71
2022/07/04 00:20:42;;;;;;;4.30;3.10;;;;;;;17.77;82.15;100694.68;84898;1324;22808;-72
2022/07/04 00:22:50;;;;;;;3.30;3.00;;;;;;;17.73;82.04;100692.82;84886;1319;22597;-72
2022/07/04 00:24:57;;;;;;;5.10;3.60;;;;;;;17.70;82.06;100690.35;84900;1320;22604;-72
2022/07/04 00:27:06;;;;;;;4.50;3.10;;;;;;;17.66;82.11;100687.90;84894;1324;22585;-72
2022/07/04 00:29:13;;;;;;;5.10;3.50;;;;;;;17.62;82.24;100686.05;84884;1324;22602;-71
2022/07/04 00:31:21;;;;;;;4.10;3.40;;;;;;;17.59;82.22;100680.26;84791;1323;22582;-71
2022/07/04 00:33:28;;;;;;;6.10;3.10;;;;;;;17.56;82.22;100676.74;84909;1324;23526;-71
2022/07/04 00:35:36;;;;;;;9.90;3.60;;;;;;;17.54;82.30;100675.06;84805;1324;22550;-71
2022/07/04 00:37:43;;;;;;;5.70;3.20;;;;;;;17.53;82.20;100671.64;84838;1325;23922;-70
2022/07/04 00:39:50;;;;;;;4.70;4.30;;;;;;;17.47;82.07;100668.95;84922;1324;22540;-71
2022/07/04 00:41:58;;;;;;;5.00;3.40;;;;;;;17.42;82.30;100674.05;84907;1323;22628;-71
2022/07/04 00:44:07;;;;;;;4.80;3.60;;;;;;;17.39;82.48;100674.64;84827;1323;22612;-71
2022/07/04 00:46:14;;;;;;;4.00;3.40;;;;;;;17.35;82.49;100670.62;84907;1325;22811;-71
2022/07/04 00:48:21;;;;;;;7.20;3.80;;;;;;;17.32;82.45;100667.83;84892;1319;22749;-71
2022/07/04 00:50:29;;;;;;;3.70;3.40;;;;;;;17.27;82.59;100662.99;84888;1323;22717;-71
2022/07/04 00:52:36;;;;;;;3.80;3.40;;;;;;;17.25;82.67;100664.71;84830;1324;22587;-71
2022/07/04 00:54:45;;;;;;;4.20;3.50;;;;;;;17.24;82.71;100664.27;84870;1326;22781;-72
2022/07/04 00:56:52;;;;;;;3.80;3.40;;;;;;;17.20;82.71;100666.95;84877;1315;22617;-72
2022/07/04 00:58:59;;;;;;;5.20;4.20;;;;;;;17.17;82.69;100661.70;84891;1325;25942;-70
2022/07/04 01:01:07;;;;;;;3.80;3.50;;;;;;;17.13;82.86;100661.39;84891;1323;22610;-71
2022/07/04 01:03:14;;;;;;;3.60;3.30;;;;;;;17.10;83.04;100660.70;84910;1323;23981;-71
2022/07/04 01:05:22;;;;;;;12.20;4.50;;;;;;;17.08;83.07;100658.16;84885;1326;22951;-72
2022/07/04 01:07:29;;;;;;;3.70;3.30;;;;;;;17.06;83.15;100658.64;84884;1324;23939;-72
2022/07/04 01:09:37;;;;;;;5.20;3.60;;;;;;;17.02;83.18;100659.94;84871;1324;23893;-71
2022/07/04 01:11:44;;;;;;;4.10;3.80;;;;;;;17.00;83.25;100656.73;84888;1324;23054;-71
2022/07/04 01:13:52;;;;;;;4.50;4.10;;;;;;;16.98;83.32;100654.36;84908;1324;22571;-71
2022/07/04 01:15:59;;;;;;;4.50;4.00;;;;;;;16.95;83.37;100656.14;84897;1324;23242;-72
2022/07/04 01:18:07;;;;;;;4.00;3.70;;;;;;;16.91;83.19;100658.30;84883;1324;25518;-71
2022/07/04 01:20:15;;;;;;;4.10;3.80;;;;;;;16.87;83.51;100654.64;84899;1321;22615;-71
2022/07/04 01:22:23;;;;;;;4.50;4.10;;;;;;;16.85;83.51;100652.87;84909;1323;22544;-71
2022/07/04 01:24:30;;;;;;;4.50;4.10;;;;;;;16.81;83.47;100650.61;84825;1318;22536;-71
2022/07/04 01:26:38;;;;;;;6.30;4.60;;;;;;;16.78;83.50;100653.81;84882;1323;22553;-72
2022/07/04 01:28:45;;;;;;;4.10;3.80;;;;;;;16.74;83.64;100652.10;84895;1327;22586;-72
2022/07/04 01:30:53;;;;;;;8.30;4.60;;;;;;;16.71;83.71;100650.33;84896;1320;22565;-72
2022/07/04 01:33:00;;;;;;;4.40;3.60;;;;;;;16.68;83.79;100655.58;84888;1321;22613;-71
2022/07/04 01:35:10;;;;;;;4.40;4.00;;;;;;;16.67;83.93;100652.85;84870;1323;22570;-71
2022/07/04 01:37:18;;;;;;;6.60;5.20;;;;;;;16.64;83.94;100656.17;84894;1327;22573;-71
2022/07/04 01:39:25;;;;;;;4.70;4.30;;;;;;;16.61;84.21;100653.88;84906;1324;22599;-72
2022/07/04 01:41:37;;;;;;;5.00;4.60;;;;;;;16.59;84.26;100658.05;84846;1324;25255;-72
2022/07/04 01:43:45;;;;;;;8.60;5.00;;;;;;;16.57;84.38;100661.90;84874;1324;22549;-72
2022/07/04 01:45:52;;;;;;;6.70;5.20;;;;;;;16.54;84.50;100666.11;84850;1318;22607;-71
2022/07/04 01:47:59;;;;;;;4.80;4.40;;;;;;;16.51;84.72;100662.41;84894;1324;22670;-71
2022/07/04 01:50:09;;;;;;;4.70;4.30;;;;;;;16.49;84.92;100661.27;84893;1325;25438;-71
2022/07/04 01:52:16;;;;;;;5.30;4.80;;;;;;;16.48;84.88;100662.03;84893;1326;22610;-71
2022/07/04 01:54:26;;;;;;;4.40;4.00;;;;;;;16.45;84.96;100661.84;84863;1321;22600;-71
2022/07/04 01:56:33;;;;;;;5.80;5.00;;;;;;;16.45;85.10;100660.63;84833;1323;25287;-71
2022/07/04 01:58:41;;;;;;;5.10;4.40;;;;;;;16.42;85.18;100660.43;84893;1315;22760;-71
2022/07/04 02:03:13;;;;;;;5.20;4.60;;;;;;;16.39;85.51;100657.83;84888;1324;22877;-71
2022/07/04 02:05:21;;;;;;;5.00;4.50;;;;;;;16.36;85.54;100660.10;84893;1323;22627;-71
2022/07/04 02:07:29;;;;;;;5.30;4.90;;;;;;;16.34;85.66;100655.64;84883;1320;22581;-71
2022/07/04 02:09:36;;;;;;;6.00;5.40;;;;;;;16.32;85.81;100657.87;84899;1324;22621;-71
2022/07/04 02:14:09;;;;;;;5.60;5.00;;;;;;;16.29;86.16;100665.80;84873;1323;22851;-71
2022/07/04 02:16:17;;;;;;;6.10;5.50;;;;;;;16.28;86.24;100665.35;84886;1324;22544;-72
2022/07/04 02:18:24;;;;;;;6.60;5.90;;;;;;;16.27;86.31;100662.73;84864;1325;22612;-71
2022/07/04 02:20:32;;;;;;;6.40;5.40;;;;;;;16.26;86.33;100660.30;84820;1324;22577;-72
2022/07/04 02:22:39;;;;;;;6.30;5.80;;;;;;;16.23;86.26;100657.98;84891;1319;22751;-71
2022/07/04 02:24:46;;;;;;;5.90;5.40;;;;;;;16.21;86.46;100663.20;84875;1319;22590;-72
2022/07/04 02:26:54;;;;;;;6.00;5.50;;;;;;;16.20;86.42;100660.50;84799;1328;22755;-71
2022/07/04 02:29:01;;;;;;;7.90;5.50;;;;;;;16.19;86.59;100661.94;84866;1319;23921;-71
2022/07/04 02:31:09;;;;;;;6.40;5.90;;;;;;;16.18;86.69;100661.98;84892;1315;22676;-71
2022/07/04 02:33:16;;;;;;;6.30;5.80;;;;;;;16.17;86.70;100663.30;84873;1324;22590;-71
2022/07/04 02:35:24;;;;;;;7.90;6.00;;;;;;;16.15;86.74;100663.06;84901;1324;22558;-71
2022/07/04 02:37:31;;;;;;;6.20;5.70;;;;;;;16.13;86.77;100657.71;84803;1324;23928;-71
2022/07/04 02:39:38;;;;;;;7.00;6.40;;;;;;;16.11;86.72;100652.58;84912;1323;22550;-71
2022/07/04 02:41:46;;;;;;;7.00;6.40;;;;;;;16.09;86.78;100654.61;84865;1318;22601;-71
2022/07/04 02:43:53;;;;;;;5.70;5.30;;;;;;;16.07;86.94;100654.55;84698;1324;252140;-71
2022/07/04 02:46:01;;;;;;;6.40;5.80;;;;;;;16.04;86.96;100653.79;84881;1325;25531;-71
2022/07/04 02:48:09;;;;;;;5.90;5.30;;;;;;;16.03;86.91;100652.85;84870;1323;22668;-72
2022/07/04 02:50:17;;;;;;;7.50;5.50;;;;;;;16.01;87.03;100656.27;84862;1319;22791;-72
2022/07/04 02:52:24;;;;;;;7.10;4.70;;;;;;;16.03;87.30;100655.33;84868;1326;24290;-71
2022/07/04 02:54:32;;;;;;;7.40;5.20;;;;;;;16.03;87.55;100656.68;84905;1323;22558;-71
2022/07/04 02:56:39;;;;;;;5.00;4.60;;;;;;;16.04;87.51;100656.10;84862;1323;22671;-71
2022/07/04 02:58:47;;;;;;;6.20;5.00;;;;;;;16.05;87.64;100656.73;84833;1320;22641;-71
2022/07/04 03:00:54;;;;;;;6.10;5.50;;;;;;;16.08;87.79;100659.05;84816;1328;22672;-72
2022/07/04 03:03:02;;;;;;;5.50;5.00;;;;;;;16.10;87.93;100658.75;84806;1327;22582;-72
2022/07/04 03:05:11;;;;;;;5.30;4.80;;;;;;;16.13;87.94;100663.88;84806;1326;25422;-71
2022/07/04 03:07:18;;;;;;;5.70;4.90;;;;;;;16.15;87.92;100661.96;84838;1322;24225;-72
2022/07/04 03:09:27;;;;;;;7.70;5.10;;;;;;;16.17;87.87;100665.04;84833;1324;22953;-72
2022/07/04 03:11:35;;;;;;;6.00;5.40;;;;;;;16.22;87.93;100663.55;84841;1324;22547;-72
2022/07/04 03:13:42;;;;;;;8.80;5.50;;;;;;;16.25;88.21;100668.28;84815;1322;22593;-72
2022/07/04 03:15:49;;;;;;;6.00;5.40;;;;;;;16.29;88.08;100669.30;84782;1317;22666;-71
2022/07/04 03:17:57;;;;;;;5.70;5.10;;;;;;;16.33;88.18;100671.91;84815;1327;22561;-72
2022/07/04 03:20:06;;;;;;;6.30;5.30;;;;;;;16.36;88.14;100673.86;84813;1326;22611;-71
2022/07/04 03:22:13;;;;;;;7.40;5.30;;;;;;;16.39;88.05;100674.91;84799;1326;22578;-71
2022/07/04 03:24:20;;;;;;;6.20;5.60;;;;;;;16.43;88.15;100678.19;84822;1327;25340;-71
2022/07/04 03:26:29;;;;;;;10.00;5.50;;;;;;;16.48;88.28;100680.18;84803;1322;22638;-71
2022/07/04 03:28:37;;;;;;;6.60;5.90;;;;;;;16.54;88.39;100678.10;84841;1323;22702;-71
2022/07/04 03:30:44;;;;;;;7.30;6.50;;;;;;;16.60;88.53;100676.67;84814;1326;22614;-71
2022/07/04 03:32:51;;;;;;;5.70;5.20;;;;;;;16.73;88.74;100679.45;84842;1324;24354;-71
2022/07/04 03:34:59;;;;;;;6.80;6.20;;;;;;;16.97;88.84;100673.84;84792;1325;22536;-71
2022/07/04 03:37:06;;;;;;;6.40;5.90;;;;;;;17.45;88.96;100671.20;84777;1321;24248;-71
2022/07/04 03:39:14;;;;;;;9.90;4.90;;;;;;;18.13;88.60;100670.86;84804;1318;22683;-71
2022/07/04 03:41:21;;;;;;;6.00;4.90;;;;;;;18.85;88.24;100675.10;84805;1325;24255;-72
2022/07/04 03:43:29;;;;;;;5.10;4.70;;;;;;;19.61;87.61;100674.98;84803;1322;22601;-71
2022/07/04 03:45:36;;;;;;;4.90;4.50;;;;;;;20.32;85.96;100674.60;84830;1324;22616;-71
2022/07/04 03:47:44;;;;;;;4.60;4.20;;;;;;;20.96;83.79;100671.11;84785;1327;22667;-72
2022/07/04 03:49:51;;;;;;;4.40;3.80;;;;;;;21.60;82.48;100666.67;84794;1329;25316;-71
2022/07/04 03:51:59;;;;;;;5.10;4.30;;;;;;;22.29;80.92;100671.02;84831;1318;22763;-72
2022/07/04 03:54:06;;;;;;;6.50;4.70;;;;;;;22.92;78.67;100667.39;84774;1326;22546;-71
2022/07/04 03:56:14;;;;;;;6.10;4.40;;;;;;;23.55;76.59;100668.35;84775;1326;22583;-71
2022/07/04 03:58:21;;;;;;;5.10;4.00;;;;;;;24.15;74.28;100669.77;84817;1327;22588;-71
2022/07/04 04:00:28;;;;;;;6.00;4.10;;;;;;;24.77;72.23;100671.84;84783;1326;22594;-71
2022/07/04 04:02:36;;;;;;;6.60;4.50;;;;;;;25.21;69.58;100670.55;84803;1326;22590;-72
2022/07/04 04:07:08;;;;;;;8.00;4.10;;;;;;;26.07;64.73;100660.40;84813;1324;22582;-72
2022/07/04 04:09:18;;;;;;;3.90;3.60;;;;;;;26.49;63.27;100660.40;84793;1326;22585;-72
2022/07/04 04:11:26;;;;;;;4.80;3.70;;;;;;;26.84;61.37;100659.05;84798;1326;22547;-72
2022/07/04 04:13:33;;;;;;;5.20;3.50;;;;;;;27.25;60.19;100656.63;84809;1327;22546;-72
2022/07/04 04:15:41;;;;;;;6.20;4.00;;;;;;;27.54;57.91;100653.95;84781;1325;25418;-72
2022/07/04 04:17:48;;;;;;;4.40;4.00;;;;;;;27.81;56.82;100656.26;84809;1327;22576;-72
2022/07/04 04:19:56;;;;;;;5.40;4.20;;;;;;;28.20;55.92;100652.50;84796;1325;25253;-73
2022/07/04 04:22:04;;;;;;;4.50;4.10;;;;;;;28.66;54.26;100649.46;84803;1327;23802;-73
2022/07/04 04:24:11;;;;;;;4.20;4.00;;;;;;;28.99;52.69;100643.30;84783;1327;24191;-72
2022/07/04 04:26:19;;;;;;;5.00;4.50;;;;;;;29.31;51.48;100645.03;84787;1322;24264;-72
2022/07/04 04:28:26;;;;;;;5.40;4.80;;;;;;;29.75;50.71;100641.19;84816;1323;22605;-72
2022/07/04 04:30:34;;;;;;;5.00;4.50;;;;;;;30.22;49.67;100640.91;84787;1324;22550;-72
2022/07/04 04:32:41;;;;;;;4.60;4.20;;;;;;;30.53;48.79;100641.59;84752;1325;22676;-72
2022/07/04 04:34:49;;;;;;;7.00;4.00;;;;;;;30.63;47.27;100645.26;84788;1327;24416;-72
2022/07/04 04:36:56;;;;;;;5.20;4.80;;;;;;;30.70;47.19;100645.56;84806;1329;22586;-73
2022/07/04 04:39:04;;;;;;;5.40;4.40;;;;;;;30.81;46.91;100644.35;84778;1325;22815;-73
2022/07/04 04:41:11;;;;;;;4.50;4.10;;;;;;;30.62;46.44;100646.27;84814;1326;22573;-73
2022/07/04 04:43:19;;;;;;;4.60;4.20;;;;;;;30.29;46.73;100644.99;84780;1327;23877;-73
2022/07/04 04:45:26;;;;;;;4.30;4.00;;;;;;;29.81;47.37;100646.61;84828;1324;22626;-73
2022/07/04 04:47:34;;;;;;;4.10;3.80;;;;;;;29.33;47.66;100646.95;84844;1324;22636;-73
2022/07/04 04:49:41;;;;;;;4.90;4.40;;;;;;;29.28;48.37;100645.62;84832;1325;22577;-73
2022/07/04 04:51:49;;;;;;;5.80;5.20;;;;;;;29.59;48.16;100644.08;84833;1324;25936;-73
2022/07/04 04:53:56;;;;;;;4.70;4.20;;;;;;;30.10;47.95;100640.69;84834;1324;25445;-73
2022/07/04 04:56:04;;;;;;;7.00;4.40;;;;;;;30.75;46.95;100634.46;84772;1325;24235;-73
2022/07/04 04:58:11;;;;;;;5.50;5.00;;;;;;;31.30;45.72;100629.95;84812;1327;22590;-73
2022/07/04 05:00:19;;;;;;;4.10;3.80;;;;;;;31.63;44.58;100628.52;84841;1324;25437;-73
2022/07/04 05:02:27;;;;;;;17.20;4.70;;;;;;;32.02;44.00;100633.83;84805;1324;22590;-73
2022/07/04 05:04:35;;;;;;;4.10;3.70;;;;;;;32.52;42.41;100637.96;84829;1324;22592;-73
2022/07/04 05:06:42;;;;;;;5.00;4.00;;;;;;;33.04;42.05;100640.48;84778;1325;22553;-73
2022/07/04 05:08:49;;;;;;;4.60;3.80;;;;;;;33.42;40.96;100638.05;84829;1325;22613;-73
2022/07/04 05:10:57;;;;;;;4.50;4.10;;;;;;;33.70;40.12;100639.44;84844;1323;22587;-73
2022/07/04 05:13:04;;;;;;;4.60;4.20;;;;;;;34.05;39.62;100641.16;84806;1327;24223;-73
2022/07/04 05:15:13;;;;;;;4.80;4.40;;;;;;;34.22;38.31;100641.19;84821;1327;24382;-73
2022/07/04 05:17:20;;;;;;;6.00;4.20;;;;;;;34.27;38.35;100638.20;84832;1327;23987;-73
2022/07/04 05:19:29;;;;;;;7.10;3.80;;;;;;;34.50;38.12;100636.95;84836;1327;22591;-73
2022/07/04 05:21:36;;;;;;;4.50;4.10;;;;;;;34.78;37.27;100635.48;84794;1328;22537;-73
2022/07/04 05:23:44;;;;;;;4.00;3.70;;;;;;;35.00;36.48;100635.23;84797;1325;22762;-73
2022/07/04 05:25:52;;;;;;;4.60;4.10;;;;;;;35.16;36.19;100635.54;84795;1327;22544;-73
2022/07/04 05:27:59;;;;;;;4.80;3.60;;;;;;;35.29;36.15;100637.63;84813;1324;22625;-73
2022/07/04 05:30:09;;;;;;;3.70;3.30;;;;;;;35.52;35.88;100638.83;84817;1324;25464;-73
2022/07/04 05:32:17;;;;;;;4.60;3.80;;;;;;;35.76;35.54;100641.45;84844;1324;22605;-72
2022/07/04 05:34:24;;;;;;;4.30;3.90;;;;;;;35.90;35.13;100639.96;84816;1326;24252;-73
2022/07/04 05:36:32;;;;;;;6.10;4.70;;;;;;;35.87;34.85;100642.88;84790;1327;22697;-73
2022/07/04 05:38:39;;;;;;;5.10;4.70;;;;;;;36.01;34.54;100647.77;84831;1327;22590;-73
2022/07/04 05:40:46;;;;;;;5.70;5.20;;;;;;;36.16;34.61;100649.13;84812;1324;24268;-73
2022/07/04 05:42:54;;;;;;;7.70;4.80;;;;;;;36.31;34.05;100647.90;84803;1327;25508;-74
2022/07/04 05:45:02;;;;;;;8.00;5.90;;;;;;;36.58;33.76;100651.33;84792;1328;25296;-74
2022/07/04 05:47:09;;;;;;;6.60;5.20;;;;;;;36.81;33.21;100652.47;84787;1322;22712;-72
2022/07/04 05:49:17;;;;;;;6.00;4.90;;;;;;;36.98;32.83;100653.05;84769;1326;22572;-73
2022/07/04 05:51:25;;;;;;;5.40;4.90;;;;;;;36.92;32.60;100655.08;84848;1328;22630;-72
2022/07/04 05:53:32;;;;;;;5.50;5.10;;;;;;;36.96;33.14;100654.13;84826;1324;22659;-72
2022/07/04 05:55:40;;;;;;;4.70;4.40;;;;;;;37.24;33.01;100652.83;84783;1327;22609;-73
2022/07/04 05:57:47;;;;;;;6.00;4.90;;;;;;;37.53;32.11;100651.16;84840;1328;24267;-72
2022/07/04 05:59:54;;;;;;;5.80;5.30;;;;;;;37.85;30.96;100655.53;84824;1324;22642;-72
2022/07/04 06:02:02;;;;;;;4.80;4.40;;;;;;;37.93;30.47;100656.27;84801;1326;22537;-72
2022/07/04 06:04:10;;;;;;;9.40;5.20;;;;;;;38.21;30.34;100650.98;84837;1327;22833;-72
2022/07/04 06:06:17;;;;;;;5.40;5.00;;;;;;;38.33;30.02;100650.23;84830;1324;22747;-72
2022/07/04 06:08:25;;;;;;;5.30;4.70;;;;;;;38.29;30.14;100649.90;84783;1326;22595;-72
2022/07/04 06:10:33;;;;;;;5.90;3.90;;;;;;;38.20;30.19;100649.02;84826;1327;22530;-72
2022/07/04 06:12:40;;;;;;;5.00;4.40;;;;;;;38.22;30.48;100650.08;84820;1327;22594;-71
2022/07/04 06:14:48;;;;;;;4.80;4.40;;;;;;;38.21;29.69;100645.34;84795;1325;22770;-71
2022/07/04 06:16:55;;;;;;;6.40;4.80;;;;;;;38.30;29.97;100648.60;84814;1324;22589;-71
2022/07/04 06:19:02;;;;;;;5.20;4.60;;;;;;;38.61;29.52;100643.71;84823;1328;22697;-71
2022/07/04 06:21:10;;;;;;;4.50;4.10;;;;;;;38.64;28.89;100636.82;84826;1324;24389;-71
2022/07/04 06:23:18;;;;;;;6.00;3.90;;;;;;;38.81;28.83;100632.46;84817;1326;22594;-71
2022/07/04 06:25:25;;;;;;;4.90;4.40;;;;;;;38.88;28.88;100633.55;84809;1322;22702;-71
2022/07/04 06:27:33;;;;;;;4.60;4.20;;;;;;;39.17;28.53;100629.09;84778;1327;22589;-71
2022/07/04 06:29:41;;;;;;;8.10;4.60;;;;;;;39.16;28.00;100626.34;84795;1326;22613;-71
2022/07/04 06:31:48;;;;;;;5.40;4.40;;;;;;;39.27;27.39;100625.55;84835;1328;23859;-71
2022/07/04 06:36:21;;;;;;;3.90;3.60;;;;;;;39.51;27.68;100621.02;84804;1324;22684;-73
2022/07/04 06:38:30;;;;;;;5.20;4.70;;;;;;;39.59;27.61;100615.59;84802;1328;25413;-73
2022/07/04 06:40:38;;;;;;;5.10;4.10;;;;;;;39.51;27.41;100613.52;84781;1327;22573;-72
2022/07/04 06:42:45;;;;;;;7.80;4.80;;;;;;;39.61;27.52;100608.89;84797;1325;22710;-72
2022/07/04 06:44:52;;;;;;;3.50;3.20;;;;;;;39.82;27.07;100602.31;84842;1325;24236;-73
2022/07/04 06:47:00;;;;;;;3.40;3.00;;;;;;;40.01;26.53;100600.90;84804;1326;22619;-73
2022/07/04 06:49:07;;;;;;;3.80;3.10;;;;;;;40.12;25.87;100603.36;84810;1322;24200;-73
2022/07/04 06:51:15;;;;;;;3.30;3.10;;;;;;;40.09;25.35;100604.84;84792;1327;22628;-73
2022/07/04 06:53:22;;;;;;;3.40;2.60;;;;;;;39.87;25.23;100602.23;84779;1327;22680;-72
2022/07/04 06:55:39;;;;;;;3.30;3.10;;;;;;;39.66;25.50;100605.73;84781;1326;22572;-73
2022/07/04 06:57:46;;;;;;;4.50;3.90;;;;;;;39.67;25.58;100602.13;84835;1318;22812;-73
2022/07/04 06:59:54;;;;;;;4.00;3.60;;;;;;;39.67;25.42;100607.00;84794;1329;22645;-72
2022/07/04 07:02:01;;;;;;;3.20;3.00;;;;;;;39.52;25.66;100606.63;84811;1323;22693;-72
2022/07/04 07:04:09;;;;;;;3.50;2.50;;;;;;;39.75;26.11;100605.00;84844;1328;22645;-72
2022/07/04 07:06:16;;;;;;;2.80;2.60;;;;;;;39.89;25.86;100603.86;84796;1329;23969;-72
2022/07/04 07:08:24;;;;;;;2.70;2.20;;;;;;;40.04;25.40;100607.48;84828;1328;24300;-73
2022/07/04 07:10:32;;;;;;;5.30;3.00;;;;;;;40.26;25.00;100605.95;84834;1324;23751;-73
2022/07/04 07:12:39;;;;;;;2.70;2.50;;;;;;;40.18;25.25;100604.90;84799;1326;22548;-73
2022/07/04 07:14:47;;;;;;;3.90;2.40;;;;;;;40.20;24.26;100604.27;84813;1325;24198;-72
2022/07/04 07:16:54;;;;;;;2.60;2.40;;;;;;;40.42;24.75;100604.57;84821;1326;24229;-74
2022/07/04 07:19:01;;;;;;;3.00;2.80;;;;;;;40.64;24.34;100602.96;84810;1329;22566;-72
2022/07/04 07:21:09;;;;;;;2.60;2.40;;;;;;;40.60;23.99;100602.91;84780;1327;24265;-72
2022/07/04 07:23:16;;;;;;;3.10;2.90;;;;;;;40.59;23.47;100607.88;84785;1326;22577;-72
2022/07/04 07:25:24;;;;;;;2.50;2.30;;;;;;;40.58;24.52;100609.02;84801;1326;22865;-73
2022/07/04 07:27:31;;;;;;;2.70;2.60;;;;;;;40.96;23.84;100609.05;84809;1327;25455;-72
2022/07/04 07:29:39;;;;;;;4.00;3.00;;;;;;;41.24;23.95;100608.16;84850;1324;22586;-72
2022/07/04 07:31:46;;;;;;;3.10;2.80;;;;;;;41.30;23.78;100604.55;84827;1328;22556;-72
2022/07/04 07:33:54;;;;;;;3.50;2.70;;;;;;;41.35;23.98;100605.67;84792;1325;22556;-72
2022/07/04 07:36:01;;;;;;;2.40;2.20;;;;;;;41.58;23.69;100606.55;84796;1326;23941;-72
2022/07/04 07:38:09;;;;;;;2.50;2.30;;;;;;;41.76;22.98;100612.20;84809;1325;22594;-72
2022/07/04 07:40:17;;;;;;;2.70;2.10;;;;;;;41.84;22.64;100612.90;84826;1324;25598;-72
2022/07/04 07:42:25;;;;;;;2.20;2.00;;;;;;;42.03;22.33;100611.98;84807;1326;24337;-77
2022/07/04 07:44:32;;;;;;;2.30;1.90;;;;;;;42.39;21.74;100607.70;84838;1326;23917;-72
2022/07/04 07:46:40;;;;;;;2.90;2.50;;;;;;;42.61;21.34;100605.67;84854;1324;22540;-72
2022/07/04 07:48:47;;;;;;;2.10;1.90;;;;;;;42.51;21.22;100606.02;84853;1327;22616;-72
2022/07/04 07:50:54;;;;;;;2.50;2.30;;;;;;;42.33;21.72;100608.19;84864;1325;22539;-72
2022/07/04 07:53:02;;;;;;;2.80;2.30;;;;;;;42.07;22.19;100608.23;84900;1327;22584;-72
2022/07/04 07:55:11;;;;;;;2.20;2.00;;;;;;;42.18;22.59;100608.90;84867;1326;22779;-72
2022/07/04 07:57:18;;;;;;;4.40;2.30;;;;;;;42.37;21.95;100606.38;84833;1327;22772;-72
2022/07/04 07:59:26;;;;;;;2.00;1.90;;;;;;;42.36;21.24;100605.60;84802;1327;22715;-72
2022/07/04 08:01:33;;;;;;;2.40;2.20;;;;;;;42.30;21.38;100608.63;84810;1327;22652;-72
2022/07/04 08:06:06;;;;;;;3.60;1.60;;;;;;;42.64;22.17;100610.10;84841;1327;22553;-72
2022/07/04 08:08:13;;;;;;;2.50;1.70;;;;;;;42.99;22.27;100605.60;84777;1322;22537;-72
2022/07/04 08:10:20;;;;;;;2.10;1.70;;;;;;;42.91;21.63;100606.59;84834;1324;22578;-72
2022/07/04 08:12:28;;;;;;;2.20;2.10;;;;;;;43.04;21.62;100604.97;84829;1326;22549;-71
2022/07/04 08:14:36;;;;;;;2.80;2.20;;;;;;;43.17;20.57;100606.15;84800;1326;22777;-74
2022/07/04 08:16:42;;;;;;;;;;;;;;;43.12;21.28;100602.70;84852;1323;22619;-73
2022/07/04 08:18:50;;;;;;;1.80;1.50;;;;;;;43.37;21.11;100608.36;84830;1324;22804;-73
2022/07/04 08:20:57;;;;;;;3.10;2.30;;;;;;;43.72;20.03;100603.58;84799;1327;22562;-73
2022/07/04 08:23:05;;;;;;;1.80;1.30;;;;;;;43.96;20.35;100602.65;84799;1329;22787;-73
2022/07/04 08:25:14;;;;;;;1.50;1.40;;;;;;;44.06;20.42;100603.31;84792;1321;22904;-73
2022/07/04 08:27:22;;;;;;;2.80;1.60;;;;;;;44.31;19.90;100605.27;84785;1329;22578;-74
2022/07/04 08:29:32;;;;;;;1.60;1.50;;;;;;;44.15;18.63;100600.51;84782;1329;22607;-75
2022/07/04 08:31:39;;;;;;;2.90;1.60;;;;;;;42.96;19.47;100596.81;84840;1323;22801;-74
2022/07/04 08:33:47;;;;;;;3.10;1.60;;;;;;;41.67;20.05;100597.08;84805;1326;22613;-74
2022/07/04 08:35:56;;;;;;;2.00;1.60;;;;;;;40.89;22.62;100597.91;84833;1324;22574;-74
2022/07/04 08:38:04;;;;;;;1.70;1.60;;;;;;;40.95;23.25;100601.70;84804;1328;25446;-74
2022/07/04 08:40:14;;;;;;;2.60;1.30;;;;;;;41.40;22.98;100600.96;84833;1325;22582;-73
2022/07/04 08:42:23;;;;;;;1.70;1.30;;;;;;;42.00;21.86;100603.22;84816;1329;22683;-73
2022/07/04 08:44:31;;;;;;;1.60;1.50;;;;;;;42.27;21.73;100598.10;84826;1325;22638;-73
2022/07/04 08:46:40;;;;;;;1.90;1.60;;;;;;;42.45;20.74;100595.09;84809;1318;22761;-74
2022/07/04 08:48:53;;;;;;;1.30;1.20;;;;;;;42.58;20.96;100589.35;84856;1328;24048;-74
2022/07/04 08:51:08;;;;;;;2.00;1.00;;;;;;;42.54;20.07;100586.35;84838;1328;24301;-74
2022/07/04 08:53:19;;;;;;;1.50;1.20;;;;;;;42.64;20.80;100590.73;84841;1328;24254;-73
2022/07/04 09:00:18;;;;;;;1.50;1.40;;;;;;;43.72;20.14;100594.54;84816;1328;22527;-74
2022/07/04 09:02:25;;;;;;;1.30;1.10;;;;;;;43.56;19.05;100594.11;84840;1328;25287;-74
2022/07/04 09:04:33;;;;;;;1.40;1.30;;;;;;;43.62;19.27;100589.43;84827;1326;22618;-74
2022/07/04 09:06:40;;;;;;;1.70;1.40;;;;;;;43.31;18.40;100586.09;84791;1325;22764;-74
2022/07/04 09:08:48;;;;;;;1.90;1.50;;;;;;;42.89;18.99;100585.10;84821;1327;24229;-73
2022/07/04 09:10:56;;;;;;;2.60;1.70;;;;;;;42.44;19.46;100582.93;84842;1328;24353;-72
2022/07/04 09:13:04;;;;;;;2.90;1.70;;;;;;;41.90;21.21;100589.92;84847;1324;22586;-72
2022/07/04 09:15:13;;;;;;;2.50;1.70;;;;;;;41.20;21.55;100595.20;84819;1326;22585;-72
2022/07/04 09:17:20;;;;;;;2.20;1.40;;;;;;;40.39;22.42;100594.64;84865;1328;22880;-72
2022/07/04 09:19:28;;;;;;;1.80;1.50;;;;;;;39.45;22.67;100594.54;84826;1324;22948;-72
2022/07/04 09:21:49;;;;;;;1.30;1.20;;;;;;;38.54;23.71;100597.76;84850;1323;22588;-72
2022/07/04 09:23:56;;;;;;;2.60;1.50;;;;;;;37.62;24.86;100604.66;84847;1328;22742;-72
2022/07/04 09:26:18;;;;;;;1.50;1.30;;;;;;;36.92;26.08;100610.50;84834;1324;23800;-72
2022/07/04 09:28:31;;;;;;;1.80;1.40;;;;;;;36.54;27.61;100615.36;84827;1323;22896;-72
2022/07/04 09:30:49;;;;;;;1.90;1.50;;;;;;;36.47;28.62;100619.01;84783;1326;23988;-72
2022/07/04 09:32:59;;;;;;;2.40;1.50;;;;;;;36.61;28.75;100624.45;84842;1324;22604;-72
2022/07/04 09:35:08;;;;;;;2.70;1.40;;;;;;;36.52;27.89;100618.95;84809;1327;22678;-72
2022/07/04 09:37:16;;;;;;;3.70;1.40;;;;;;;36.32;27.92;100614.56;84839;1323;22677;-72
2022/07/04 09:39:23;;;;;;;1.60;1.50;;;;;;;36.10;27.40;100614.59;84811;1328;22583;-72
2022/07/04 09:41:34;;;;;;;1.30;1.20;;;;;;;35.88;26.76;100611.61;84816;1326;22755;-72
2022/07/04 09:43:48;;;;;;;2.10;1.70;;;;;;;35.71;27.62;100606.26;84794;1329;22657;-71
2022/07/04 09:46:00;;;;;;;2.40;1.70;;;;;;;35.63;26.90;100605.66;84846;1328;22594;-71
2022/07/04 09:48:08;;;;;;;1.50;1.40;;;;;;;35.27;26.79;100606.59;84835;1322;22602;-72
2022/07/04 09:50:18;;;;;;;2.10;1.70;;;;;;;34.84;27.91;100604.40;84827;1326;22615;-72
2022/07/04 09:52:27;;;;;;;2.20;1.90;;;;;;;34.65;29.34;100607.01;84840;1328;22828;-72
2022/07/04 09:54:35;;;;;;;3.80;1.40;;;;;;;34.51;29.72;100605.77;84823;1320;22600;-72
2022/07/04 09:56:47;;;;;;;4.40;1.80;;;;;;;34.50;29.43;100608.52;84822;1326;25424;-72
2022/07/04 09:59:01;;;;;;;3.70;2.20;;;;;;;34.41;30.15;100610.04;84802;1329;22617;-72
2022/07/04 10:01:09;;;;;;;2.30;1.60;;;;;;;34.40;31.01;100614.36;84793;1321;22659;-72
2022/07/04 10:03:25;;;;;;;4.60;2.90;;;;;;;34.42;31.13;100614.23;84839;1324;23936;-72
2022/07/04 10:05:32;;;;;;;2.70;1.50;;;;;;;34.25;30.30;100609.48;84822;1324;22628;-73
2022/07/04 10:07:43;;;;;;;5.20;2.40;;;;;;;34.07;30.26;100605.61;84825;1324;23981;-71
2022/07/04 10:09:51;;;;;;;3.10;1.60;;;;;;;33.84;30.69;100602.73;84833;1321;22764;-71
2022/07/04 10:11:58;;;;;;;2.40;1.40;;;;;;;33.59;30.67;100602.41;84793;1327;24010;-72